createdAt,value
2018-09-06T00:01:13.580Z,24.13
2018-09-06T00:03:41.648Z,22.00
2018-09-06T00:06:09.683Z,22.93
2018-09-06T00:08:37.710Z,22.83
2018-09-06T00:11:05.808Z,23.27
2018-09-06T00:13:33.879Z,22.90
2018-09-06T00:16:02.009Z,20.50
2018-09-06T00:18:30.060Z,21.90
2018-09-06T00:20:58.147Z,21.10
2018-09-06T00:23:26.224Z,23.70
2018-09-06T00:25:56.320Z,23.50
2018-09-06T00:28:24.399Z,22.63
2018-09-06T00:30:52.468Z,23.13
2018-09-06T00:33:20.546Z,22.13
2018-09-06T00:35:48.607Z,24.20
2018-09-06T00:38:16.651Z,24.77
2018-09-06T00:40:44.741Z,22.67
2018-09-06T00:43:12.784Z,23.90
2018-09-06T00:45:40.795Z,27.07
2018-09-06T00:48:10.879Z,23.87
2018-09-06T00:50:40.907Z,21.47
2018-09-06T00:53:08.895Z,21.00
2018-09-06T00:55:37.019Z,25.90
2018-09-06T00:58:05.011Z,25.40
2018-09-06T01:00:32.999Z,23.57
2018-09-06T01:03:01.009Z,22.50
2018-09-06T01:05:31.306Z,21.77
2018-09-06T01:07:59.395Z,24.10
2018-09-06T01:10:27.402Z,23.70
2018-09-06T01:12:55.432Z,23.10
2018-09-06T01:15:23.426Z,24.40
2018-09-06T01:17:51.438Z,26.40
2018-09-06T01:20:19.440Z,24.63
2018-09-06T01:22:47.457Z,25.10
2018-09-06T01:25:15.556Z,22.77
2018-09-06T01:27:43.577Z,23.30
2018-09-06T01:30:11.586Z,23.83
2018-09-06T01:32:39.699Z,24.73
2018-09-06T01:35:07.694Z,24.77
2018-09-06T01:37:37.899Z,24.53
2018-09-06T01:40:05.909Z,23.60
2018-09-06T01:42:36.146Z,23.23
2018-09-06T01:45:04.177Z,23.50
2018-09-06T01:47:32.202Z,21.80
2018-09-06T01:50:00.242Z,21.80
2018-09-06T01:52:28.259Z,25.80
2018-09-06T01:54:56.280Z,23.73
2018-09-06T01:57:24.318Z,23.00
2018-09-06T01:59:52.362Z,21.47
2018-09-06T02:02:20.389Z,23.70
2018-09-06T02:04:48.414Z,24.73
2018-09-06T02:07:16.449Z,21.90
2018-09-06T02:09:44.483Z,21.97
2018-09-06T02:12:12.543Z,23.03
2018-09-06T02:14:40.573Z,25.37
2018-09-06T02:17:08.623Z,23.10
2018-09-06T02:19:36.644Z,22.60
2018-09-06T02:22:04.676Z,22.97
2018-09-06T02:24:32.838Z,23.13
2018-09-06T02:27:00.752Z,23.73
2018-09-06T02:29:28.789Z,23.17
2018-09-06T02:31:56.831Z,23.97
2018-09-06T02:34:24.877Z,24.50
2018-09-06T02:36:52.891Z,24.40
2018-09-06T02:39:20.935Z,22.40
2018-09-06T02:41:48.969Z,22.40
2018-09-06T02:44:17.005Z,23.97
2018-09-06T02:46:45.019Z,22.90
2018-09-06T02:49:13.035Z,22.17
2018-09-06T02:51:41.054Z,21.43
2018-09-06T02:54:09.060Z,25.13
2018-09-06T02:56:37.084Z,26.03
2018-09-06T02:59:05.107Z,24.87
2018-09-06T03:01:33.132Z,24.60
2018-09-06T03:04:01.147Z,23.90
2018-09-06T03:06:29.142Z,25.30
2018-09-06T03:08:57.170Z,24.47
2018-09-06T03:11:28.507Z,22.27
2018-09-06T03:13:56.537Z,23.90
2018-09-06T03:16:24.568Z,22.50
2018-09-06T03:18:52.632Z,24.60
2018-09-06T03:21:20.718Z,23.40
2018-09-06T03:23:48.790Z,23.87
2018-09-06T03:26:17.821Z,22.37
2018-09-06T03:28:47.348Z,24.20
2018-09-06T03:31:15.506Z,23.07
2018-09-06T03:33:43.914Z,22.40
2018-09-06T03:36:12.130Z,21.73
2018-09-06T03:38:40.224Z,22.00
2018-09-06T03:41:08.250Z,22.57
2018-09-06T03:43:36.262Z,19.80
2018-09-06T03:46:05.454Z,20.30
2018-09-06T03:48:33.509Z,20.03
2018-09-06T03:51:01.518Z,20.70
2018-09-06T03:53:29.531Z,22.13
2018-09-06T03:55:57.554Z,22.10
2018-09-06T03:58:25.564Z,20.80
2018-09-06T04:00:53.572Z,20.70
2018-09-06T04:03:21.575Z,19.77
2018-09-06T04:05:49.579Z,18.57
2018-09-06T04:08:17.583Z,19.33
2018-09-06T04:10:45.595Z,20.67
2018-09-06T04:13:13.615Z,20.60
2018-09-06T04:15:41.607Z,19.10
2018-09-06T04:18:09.631Z,20.50
2018-09-06T04:20:37.643Z,20.30
2018-09-06T04:23:05.661Z,19.83
2018-09-06T04:25:33.674Z,20.20
2018-09-06T04:28:01.687Z,19.33
2018-09-06T04:30:29.690Z,21.00
2018-09-06T04:32:57.698Z,18.73
2018-09-06T04:35:25.762Z,17.90
2018-09-06T04:37:53.698Z,19.33
2018-09-06T04:40:21.713Z,17.67
2018-09-06T04:42:49.711Z,18.23
2018-09-06T04:45:17.719Z,19.57
2018-09-06T04:47:45.724Z,20.00
2018-09-06T04:50:13.734Z,19.70
2018-09-06T04:52:43.017Z,18.43
2018-09-06T04:55:11.068Z,18.43
2018-09-06T04:57:39.068Z,21.03
2018-09-06T05:00:07.083Z,21.50
2018-09-06T05:02:35.078Z,21.20
2018-09-06T05:05:03.083Z,21.70
2018-09-06T05:07:31.085Z,22.93
2018-09-06T05:09:59.204Z,21.50
2018-09-06T05:12:27.225Z,24.30
2018-09-06T05:14:55.353Z,22.10
2018-09-06T05:17:23.497Z,22.60
2018-09-06T05:19:51.649Z,22.67
2018-09-06T05:22:19.670Z,21.93
2018-09-06T05:24:47.679Z,23.67
2018-09-06T05:27:15.683Z,23.00
2018-09-06T05:29:43.687Z,19.60
2018-09-06T05:32:11.696Z,22.10
2018-09-06T05:34:39.716Z,23.80
2018-09-06T05:37:07.782Z,22.30
2018-09-06T05:39:35.816Z,21.80
2018-09-06T05:42:03.821Z,20.60
2018-09-06T05:44:31.843Z,19.57
2018-09-06T05:46:59.850Z,17.40
2018-09-06T05:49:27.820Z,16.93
2018-09-06T05:51:55.771Z,15.50
2018-09-06T05:54:23.751Z,16.93
2018-09-06T05:56:51.711Z,16.43
2018-09-06T05:59:19.675Z,16.60
2018-09-06T06:01:47.648Z,17.00
2018-09-06T06:04:15.646Z,16.90
2018-09-06T06:06:43.645Z,16.10
2018-09-06T06:09:11.612Z,16.17
2018-09-06T06:11:39.605Z,15.90
2018-09-06T06:14:07.665Z,15.97
2018-09-06T06:16:35.732Z,13.67
2018-09-06T06:19:03.837Z,15.70
2018-09-06T06:21:31.987Z,15.40
2018-09-06T06:24:00.193Z,15.20
2018-09-06T06:26:28.371Z,15.60
2018-09-06T06:29:02.250Z,15.23
2018-09-06T06:31:30.405Z,15.87
2018-09-06T06:33:58.612Z,14.37
2018-09-06T06:36:26.809Z,15.60
2018-09-06T06:38:54.998Z,15.73
2018-09-06T06:41:25.471Z,16.37
2018-09-06T06:43:53.634Z,15.57
2018-09-06T06:46:21.770Z,15.53
2018-09-06T06:48:49.940Z,15.50
2018-09-06T06:51:18.103Z,14.20
2018-09-06T06:53:48.334Z,15.00
2018-09-06T06:56:16.638Z,14.13
2018-09-06T06:58:44.828Z,14.17
2018-09-06T07:01:13.072Z,13.43
2018-09-06T07:03:41.261Z,11.97
2018-09-06T07:06:12.833Z,12.10
2018-09-06T07:08:43.626Z,13.73
2018-09-06T07:11:11.781Z,12.97
2018-09-06T07:13:40.081Z,12.03
2018-09-06T07:16:08.304Z,11.90
2018-09-06T07:18:36.509Z,12.70
2018-09-06T07:21:06.788Z,12.90
2018-09-06T07:23:35.015Z,11.77
2018-09-06T07:26:03.266Z,10.53
2018-09-06T07:28:33.785Z,11.70
2018-09-06T07:31:01.935Z,11.23
2018-09-06T07:33:30.015Z,12.70
2018-09-06T07:36:02.811Z,11.73
2018-09-06T07:38:31.102Z,12.23
2018-09-06T07:40:59.268Z,13.30
2018-09-06T07:43:27.528Z,14.00
2018-09-06T07:45:55.735Z,13.37
2018-09-06T07:48:23.984Z,13.10
2018-09-06T07:50:52.133Z,14.57
2018-09-06T07:53:20.189Z,14.47
2018-09-06T07:55:50.328Z,13.77
2018-09-06T07:58:18.304Z,14.63
2018-09-06T08:00:46.340Z,13.10
2018-09-06T08:03:14.344Z,12.60
2018-09-06T08:05:42.991Z,13.20
2018-09-06T08:08:11.092Z,13.07
2018-09-06T08:10:39.053Z,12.47
2018-09-06T08:13:07.068Z,11.43
2018-09-06T08:15:35.035Z,12.90
2018-09-06T08:18:07.119Z,12.53
2018-09-06T08:20:35.084Z,11.60
2018-09-06T08:23:03.256Z,11.23
2018-09-06T08:25:31.698Z,11.37
2018-09-06T08:27:59.926Z,11.00
2018-09-06T08:30:29.293Z,11.60
2018-09-06T08:32:57.596Z,10.77
2018-09-06T08:35:25.791Z,10.30
2018-09-06T08:37:53.852Z,9.80
2018-09-06T08:40:21.915Z,9.70
2018-09-06T08:42:50.091Z,14.07
2018-09-06T08:45:18.161Z,12.90
2018-09-06T08:47:46.231Z,10.37
2018-09-06T08:50:14.240Z,8.13
2018-09-06T08:52:42.376Z,9.53
2018-09-06T08:55:10.439Z,9.50
2018-09-06T08:57:38.519Z,8.70
2018-09-06T09:00:06.562Z,7.67
2018-09-06T09:02:34.697Z,9.53
2018-09-06T09:05:02.687Z,7.63
2018-09-06T09:07:35.054Z,8.40
2018-09-06T09:10:04.212Z,8.07
2018-09-06T09:12:32.349Z,8.83
2018-09-06T09:15:00.417Z,7.00
2018-09-06T09:17:28.488Z,7.60
2018-09-06T09:19:56.565Z,8.83
2018-09-06T09:22:26.734Z,7.30
2018-09-06T09:24:54.699Z,7.77
2018-09-06T09:27:22.724Z,8.30
2018-09-06T09:29:50.812Z,8.20
2018-09-06T09:32:18.893Z,7.40
2018-09-06T09:34:46.954Z,7.10
2018-09-06T09:37:15.007Z,6.97
2018-09-06T09:39:43.048Z,7.53
2018-09-06T09:42:11.205Z,7.30
2018-09-06T09:44:39.276Z,7.80
2018-09-06T09:49:34.754Z,7.07
2018-09-06T09:52:02.788Z,7.83
2018-09-06T09:54:31.890Z,7.50
2018-09-06T09:57:00.003Z,7.87
2018-09-06T09:59:28.054Z,7.43
2018-09-06T10:02:01.633Z,8.03
2018-09-06T10:04:35.537Z,7.50
2018-09-06T10:07:08.968Z,7.50
2018-09-06T10:09:37.016Z,6.37
2018-09-06T10:12:05.093Z,7.33
2018-09-06T10:14:33.261Z,7.40
2018-09-06T10:17:01.300Z,6.87
2018-09-06T10:19:29.314Z,6.50
2018-09-06T10:21:57.497Z,6.40
2018-09-06T10:24:25.565Z,7.10
2018-09-06T10:26:54.419Z,7.07
2018-09-06T10:29:22.505Z,6.90
2018-09-06T10:31:50.576Z,6.90
2018-09-06T10:34:18.684Z,6.60
2018-09-06T10:36:46.716Z,6.77
2018-09-06T10:39:14.770Z,7.13
2018-09-06T10:41:42.799Z,6.93
2018-09-06T10:44:10.872Z,7.60
2018-09-06T10:46:38.933Z,7.30
2018-09-06T10:49:06.979Z,8.43
2018-09-06T10:51:35.005Z,7.13
2018-09-06T10:54:03.054Z,8.10
2018-09-06T10:56:31.077Z,8.60
2018-09-06T10:58:59.156Z,7.00
2018-09-06T11:01:27.239Z,5.73
2018-09-06T11:03:56.494Z,6.23
2018-09-06T11:06:26.580Z,8.00
2018-09-06T11:08:54.640Z,7.10
2018-09-06T11:11:22.673Z,6.90
2018-09-06T11:13:50.723Z,6.20
2018-09-06T11:16:19.329Z,6.97
2018-09-06T11:18:47.368Z,6.80
2018-09-06T11:21:15.535Z,6.33
2018-09-06T11:23:43.700Z,6.47
2018-09-06T11:26:11.766Z,7.10
2018-09-06T11:28:40.005Z,6.00
2018-09-06T11:31:08.092Z,6.47
2018-09-06T11:33:36.242Z,7.17
2018-09-06T11:36:04.410Z,6.07
2018-09-06T11:38:32.506Z,6.13
2018-09-06T11:41:00.552Z,5.87
2018-09-06T11:43:29.626Z,5.77
2018-09-06T11:45:57.673Z,6.30
2018-09-06T11:48:25.700Z,6.93
2018-09-06T11:50:53.720Z,6.40
2018-09-06T11:53:22.870Z,6.47
2018-09-06T11:55:51.001Z,6.63
2018-09-06T11:58:19.278Z,6.67
2018-09-06T12:00:47.411Z,6.53
2018-09-06T12:03:15.453Z,7.03
2018-09-06T12:05:43.488Z,5.80
2018-09-06T12:08:11.583Z,6.57
2018-09-06T12:10:39.779Z,6.20
2018-09-06T12:13:08.380Z,5.10
2018-09-06T12:15:36.684Z,5.37
2018-09-06T12:18:04.731Z,5.60
2018-09-06T12:20:33.090Z,5.70
2018-09-06T12:23:01.269Z,4.90
2018-09-06T12:25:29.709Z,5.60
2018-09-06T12:27:57.899Z,5.60
2018-09-06T12:30:26.187Z,5.47
2018-09-06T12:32:54.196Z,5.40
2018-09-06T12:35:23.168Z,6.47
2018-09-06T12:37:52.621Z,5.63
2018-09-06T12:40:20.779Z,6.03
2018-09-06T12:42:48.876Z,6.47
2018-09-06T12:45:16.943Z,6.13
2018-09-06T12:47:45.252Z,5.60
2018-09-06T12:50:13.314Z,6.30
2018-09-06T12:52:41.542Z,6.00
2018-09-06T12:55:09.735Z,5.63
2018-09-06T12:57:37.796Z,5.50
2018-09-06T13:00:06.109Z,5.73
2018-09-06T13:02:34.180Z,6.20
2018-09-06T13:05:03.108Z,6.20
2018-09-06T13:07:32.178Z,6.17
2018-09-06T13:10:00.599Z,6.57
2018-09-06T13:12:28.644Z,6.40
2018-09-06T13:14:56.700Z,6.80
2018-09-06T13:17:24.742Z,6.17
2018-09-06T13:19:52.790Z,5.90
2018-09-06T13:22:20.916Z,6.00
2018-09-06T13:24:48.987Z,6.10
2018-09-06T13:27:17.075Z,6.30
2018-09-06T13:29:45.141Z,5.53
2018-09-06T13:32:13.214Z,7.00
2018-09-06T13:34:42.054Z,6.23
2018-09-06T13:37:10.165Z,6.70
2018-09-06T13:39:38.214Z,6.87
2018-09-06T13:42:06.305Z,6.43
2018-09-06T13:44:34.343Z,6.17
2018-09-06T13:47:02.564Z,6.40
2018-09-06T13:49:30.636Z,6.33
2018-09-06T13:51:58.709Z,6.07
2018-09-06T13:54:30.021Z,6.00
2018-09-06T13:56:58.102Z,6.33
2018-09-06T13:59:26.158Z,6.87
2018-09-06T14:01:54.210Z,6.47
2018-09-06T14:04:22.261Z,6.43
2018-09-06T14:06:50.368Z,6.73
2018-09-06T14:09:18.453Z,7.00
2018-09-06T14:11:46.698Z,6.67
2018-09-06T14:14:14.762Z,6.33
2018-09-06T14:16:50.451Z,7.43
2018-09-06T14:19:18.608Z,7.60
2018-09-06T14:21:47.292Z,7.33
2018-09-06T14:24:16.701Z,7.40
2018-09-06T14:26:44.949Z,7.40
2018-09-06T14:29:13.809Z,7.77
2018-09-06T14:31:41.900Z,8.03
2018-09-06T14:34:10.842Z,8.60
2018-09-06T14:36:39.297Z,7.50
2018-09-06T14:39:09.728Z,8.07
2018-09-06T14:41:38.543Z,8.60
2018-09-06T14:44:07.598Z,8.43
2018-09-06T14:46:35.824Z,8.47
2018-09-06T14:49:04.240Z,8.60
2018-09-06T14:51:32.403Z,8.27
2018-09-06T14:54:01.177Z,8.50
2018-09-06T14:56:29.458Z,20.80
2018-09-06T14:58:57.841Z,8.90
2018-09-06T15:01:26.051Z,8.50
2018-09-06T15:03:54.330Z,9.33
2018-09-06T15:06:23.249Z,8.47
2018-09-06T15:08:51.501Z,8.60
2018-09-06T15:11:19.986Z,8.27
2018-09-06T15:13:48.131Z,8.80
2018-09-06T15:16:16.870Z,9.40
2018-09-06T15:18:44.957Z,8.70
2018-09-06T15:21:13.135Z,8.60
2018-09-06T15:23:41.184Z,8.63
2018-09-06T15:26:09.269Z,8.87
2018-09-06T15:28:37.329Z,9.23
2018-09-06T15:31:05.413Z,9.20
2018-09-06T15:33:33.514Z,9.17
2018-09-06T15:36:01.552Z,9.37
2018-09-06T15:38:29.643Z,8.90
2018-09-06T15:40:57.747Z,9.10
2018-09-06T15:43:26.034Z,8.33
2018-09-06T15:45:54.255Z,8.70
2018-09-06T15:48:22.325Z,9.13
2018-09-06T15:50:50.498Z,8.80
2018-09-06T15:53:18.900Z,10.50
2018-09-06T15:55:47.105Z,9.10
2018-09-06T15:58:15.145Z,8.60
2018-09-06T16:00:43.189Z,9.63
2018-09-06T16:03:11.441Z,8.63
2018-09-06T16:05:39.992Z,8.17
2018-09-06T16:08:08.323Z,9.40
2018-09-06T16:10:36.468Z,9.60
2018-09-06T16:13:04.626Z,9.60
2018-09-06T16:15:32.794Z,9.80
2018-09-06T16:18:00.929Z,9.37
2018-09-06T16:20:29.149Z,8.97
2018-09-06T16:23:01.211Z,10.27
2018-09-06T16:25:29.452Z,9.77
2018-09-06T16:27:58.016Z,9.53
2018-09-06T16:30:26.394Z,10.20
2018-09-06T16:32:55.046Z,8.87
2018-09-06T16:35:23.265Z,8.03
2018-09-06T16:37:51.764Z,9.47
2018-09-06T16:40:20.197Z,8.40
2018-09-06T16:42:48.730Z,8.40
2018-09-06T16:45:17.065Z,9.33
2018-09-06T16:47:45.411Z,9.13
2018-09-06T16:50:16.148Z,9.50
2018-09-06T16:52:44.492Z,8.50
2018-09-06T16:55:12.994Z,9.33
2018-09-06T16:57:41.319Z,9.20
2018-09-06T17:00:09.618Z,9.97
2018-09-06T17:02:38.202Z,9.57
2018-09-06T17:05:06.357Z,9.70
2018-09-06T17:07:34.598Z,8.10
2018-09-06T17:10:02.825Z,8.70
2018-09-06T17:12:31.037Z,8.77
2018-09-06T17:14:59.142Z,8.40
2018-09-06T17:17:27.387Z,9.60
2018-09-06T17:19:55.557Z,9.67
2018-09-06T17:22:23.863Z,9.70
2018-09-06T17:24:51.948Z,9.47
2018-09-06T17:27:20.190Z,10.30
2018-09-06T17:29:48.775Z,8.83
2018-09-06T17:32:17.206Z,9.60
2018-09-06T17:34:46.049Z,8.87
2018-09-06T17:37:14.371Z,10.07
2018-09-06T17:39:42.542Z,8.97
2018-09-06T17:42:10.736Z,10.20
2018-09-06T17:44:39.318Z,9.60
2018-09-06T17:47:07.548Z,10.67
2018-09-06T17:49:35.687Z,10.07
2018-09-06T17:52:03.985Z,10.63
2018-09-06T17:54:32.176Z,10.60
2018-09-06T17:57:00.361Z,10.03
2018-09-06T17:59:28.503Z,11.23
2018-09-06T18:01:57.044Z,10.50
2018-09-06T18:04:25.787Z,12.97
2018-09-06T18:06:54.099Z,12.60
2018-09-06T18:09:22.509Z,11.83
2018-09-06T18:11:51.033Z,10.70
2018-09-06T18:14:19.767Z,10.67
2018-09-06T18:16:48.196Z,11.10
2018-09-06T18:19:16.583Z,11.83
2018-09-06T18:21:44.697Z,11.80
2018-09-06T18:24:12.947Z,12.10
2018-09-06T18:26:41.222Z,10.73
2018-09-06T18:29:09.378Z,11.57
2018-09-06T18:31:37.549Z,11.70
2018-09-06T18:34:05.616Z,11.70
2018-09-06T18:36:33.635Z,11.77
2018-09-06T18:39:01.705Z,11.53
2018-09-06T18:41:29.732Z,11.10
2018-09-06T18:43:57.867Z,11.80
2018-09-06T18:46:26.003Z,11.37
2018-09-06T18:48:54.081Z,11.20
2018-09-06T18:51:22.219Z,10.30
2018-09-06T18:53:50.287Z,10.23
2018-09-06T18:56:18.290Z,10.50
2018-09-06T18:58:46.319Z,10.60
2018-09-06T19:01:14.364Z,10.33
2018-09-06T19:03:42.724Z,10.03
2018-09-06T19:06:10.758Z,9.93
2018-09-06T19:08:38.891Z,8.50
2018-09-06T19:11:07.525Z,10.13
2018-09-06T19:13:35.620Z,9.90
2018-09-06T19:16:05.694Z,10.27
2018-09-06T19:18:33.797Z,11.30
2018-09-06T19:21:01.874Z,10.30
2018-09-06T19:23:29.927Z,10.97
2018-09-06T19:25:58.089Z,11.50
2018-09-06T19:28:26.070Z,12.40
2018-09-06T19:30:54.050Z,11.00
2018-09-06T19:33:22.048Z,11.77
2018-09-06T19:35:49.992Z,10.93
2018-09-06T19:38:18.001Z,12.03
2018-09-06T19:40:48.062Z,12.33
2018-09-06T19:43:15.999Z,12.57
2018-09-06T19:45:44.052Z,12.90
2018-09-06T19:48:12.044Z,12.03
2018-09-06T19:50:40.121Z,11.40
2018-09-06T19:53:08.146Z,11.00
2018-09-06T19:55:36.219Z,10.23
2018-09-06T19:58:04.391Z,10.87
2018-09-06T20:00:32.322Z,10.30
2018-09-06T20:03:00.361Z,9.87
2018-09-06T20:05:28.311Z,9.53
2018-09-06T20:07:56.363Z,10.57
2018-09-06T20:10:24.293Z,8.37
2018-09-06T20:12:52.230Z,8.33
2018-09-06T20:15:20.225Z,10.30
2018-09-06T20:17:48.259Z,9.87
2018-09-06T20:20:16.202Z,11.60
2018-09-06T20:22:44.131Z,11.67
2018-09-06T20:25:12.054Z,8.93
2018-09-06T20:27:39.981Z,10.20
2018-09-06T20:30:07.910Z,10.03
2018-09-06T20:32:35.842Z,8.63
2018-09-06T20:35:03.792Z,9.27
2018-09-06T20:37:31.739Z,9.37
2018-09-06T20:39:59.670Z,6.93
2018-09-06T20:42:27.616Z,7.97
2018-09-06T20:44:55.562Z,8.00
2018-09-06T20:47:23.516Z,7.60
2018-09-06T20:49:51.491Z,7.87
2018-09-06T20:52:19.427Z,6.10
2018-09-06T20:54:47.359Z,6.63
2018-09-06T20:57:15.314Z,5.00
2018-09-06T20:59:43.263Z,6.03
2018-09-06T21:02:16.762Z,5.33
2018-09-06T21:04:44.687Z,5.70
2018-09-06T21:07:12.620Z,4.83
2018-09-06T21:09:40.595Z,4.73
2018-09-06T21:12:08.543Z,4.83
2018-09-06T21:14:36.532Z,5.23
2018-09-06T21:17:04.471Z,4.90
2018-09-06T21:19:36.892Z,5.33
2018-09-06T21:22:04.827Z,4.93
2018-09-06T21:24:33.026Z,6.00
2018-09-06T21:27:01.083Z,5.57
2018-09-06T21:29:33.115Z,4.93
2018-09-06T21:32:01.088Z,5.07
2018-09-06T21:34:30.948Z,4.70
2018-09-06T21:36:58.882Z,4.60
2018-09-06T21:39:26.810Z,4.83
2018-09-06T21:42:01.078Z,5.17
2018-09-06T21:44:29.024Z,4.40
2018-09-06T21:46:56.971Z,4.30
2018-09-06T21:49:24.971Z,4.07
2018-09-06T21:51:52.924Z,4.27
2018-09-06T21:54:20.853Z,5.30
2018-09-06T21:56:48.874Z,4.47
2018-09-06T21:59:16.815Z,6.00
2018-09-06T22:01:44.763Z,5.37
2018-09-06T22:04:14.939Z,6.07
2018-09-06T22:06:42.990Z,4.73
2018-09-06T22:09:12.424Z,5.63
2018-09-06T22:11:42.550Z,6.47
2018-09-06T22:14:12.666Z,5.60
2018-09-06T22:16:40.676Z,6.33
2018-09-06T22:19:13.111Z,5.03
2018-09-06T22:21:41.110Z,6.60
2018-09-06T22:24:09.111Z,5.03
2018-09-06T22:26:39.329Z,5.10
2018-09-06T22:29:09.558Z,5.00
2018-09-06T22:31:39.703Z,5.50
2018-09-06T22:34:07.630Z,4.87
2018-09-06T22:36:35.634Z,5.40
2018-09-06T22:39:08.156Z,5.60
2018-09-06T22:41:40.232Z,5.00
2018-09-06T22:44:08.199Z,5.63
2018-09-06T22:46:42.379Z,5.10
2018-09-06T22:49:10.360Z,6.43
2018-09-06T22:51:38.351Z,5.50
2018-09-06T22:54:06.321Z,5.50
2018-09-06T22:56:34.283Z,5.07
2018-09-06T22:59:02.255Z,5.00
2018-09-06T23:01:30.186Z,5.83
2018-09-06T23:03:58.157Z,6.47
2018-09-06T23:06:26.115Z,4.80
2018-09-06T23:08:54.083Z,6.10
2018-09-06T23:11:23.107Z,5.90
2018-09-06T23:13:51.066Z,7.17
2018-09-06T23:16:18.997Z,6.20
2018-09-06T23:18:46.979Z,6.53
2018-09-06T23:21:14.982Z,6.10
2018-09-06T23:23:42.966Z,6.17
2018-09-06T23:26:10.944Z,5.53
2018-09-06T23:28:39.002Z,5.50
2018-09-06T23:31:07.014Z,5.40
2018-09-06T23:33:35.021Z,5.30
2018-09-06T23:36:02.975Z,6.07
2018-09-06T23:38:30.934Z,4.40
2018-09-06T23:40:58.907Z,5.47
2018-09-06T23:43:27.446Z,4.83
2018-09-06T23:45:58.601Z,4.60
2018-09-06T23:48:27.783Z,4.77
2018-09-06T23:50:56.571Z,4.80
2018-09-06T23:53:25.498Z,4.87
2018-09-06T23:55:53.579Z,5.43
2018-09-06T23:58:21.658Z,5.10
